Noumérat - Moufdi Zakaria Airport

DAUG · Ghardaia, 阿尔及利亚

罗盘
风向 的 风向 160° Noumérat - Moufdi Zakaria Airport 12/30
风: 18 kt, 5 beaufort

14 kt

12 kt
改变
0 ft 2.000 4.000 6.000 8.000 10.000
Cloud Cloud Cloud Cloud
SCT 4.000
Cloud Cloud Cloud Cloud
SCT 10.000
METAR DAUG 191100Z 16018KT 8000 SCT040 SCT100 40/01 Q1015

METAR Noumérat - Moufdi Zakaria Airport - DAUG/GHA

Noumérat - Moufdi Zakaria Airport是,阿尔及利亚中的中型机场。 该机场位于纬度32,38530和经度3,80181。 该机场有2条跑道: 12/30 和 18/36. 本场的ICAO机场代码为DAUG。 该机场的IATA代码为GHA。 机场在Alger FIR中。

该航空气象观测是针对Noumérat - Moufdi Zakaria Airport在2024年6月19日 12:00, 当地时间进行的。

机场观察

风向为160°,速度为18 kt。

可见度为8 km。

有疏云,零星散落的云朵在4.000 ft的高度 和 疏云,零星散落的云朵在10.000 ft的高度。 没有观察到天花板。

温度和风寒是40 °C。 露点为1 °C,相对湿度为9%。 海平面上的气压为1015 hPa (QNH)。

白天

今天,太阳从05:37升起,在19:54降落。 这适用于Noumérat - Moufdi Zakaria Airport,世界夏令时可能有所不同。 当地时间与世界标准时间之间的时差为+1 小时。 夏令时目前正在进行中。

公司介绍

我们没有关于这个机场的公司信息。

体会

到Vliegles.nl去找飞行课程,跳伞和其他飞行体验。 浏览页面,了解Noumérat - Moufdi Zakaria Airport附近所有可用的活动。 你也可以使用搜索功能来寻找你所在地附近的特定飞行课程、跳伞或其他飞行体验。

跑道

Id 标题 侧风 逆风 侧风 %
12/30 120°-300° 12 kt 14 kt 64 %
18/36 180°-360° 6 kt 17 kt 34 %

逆风成分最大的方向会被突出显示,并用于横风计算。 这并不一定意味着这个方向在使用。

乌云

4.000 ft SCT 疏云,零星散落的云朵
10.000 ft SCT 疏云,零星散落的云朵

温度 & 天气

温度 40 °C
露点 1 °C
相对湿度 9%
Kp-index 1 (0-9)

白天

日出
05:37
中午
12:46
日落
19:54 (7:40)

小工具

你想在你的网站上有一个关于Noumérat - Moufdi Zakaria Airport的当前航空天气(METAR)的小部件吗?

显示HTML代码
报告变更